Time;durP1;ratioP1;P1;durP2;ratioP2;P2;SDS_P1;SDS_P2;PMS_P1;PMS_P2;Temp;Humidity;BMP_temperature;BMP_pressure;BME280_temperature;BME280_humidity;BME280_pressure;Samples;Min_cycle;Max_cycle;Signal;HPM_P1;HPM_P2
2021/09/13 00:00:40;;;;;;;4.93;2.97;;;18.20;99.90;;;;;;5064182;28;20488;-92
2021/09/13 00:03:06;;;;;;;3.95;3.10;;;18.30;99.90;;;;;;5071478;28;20023;-87
2021/09/13 00:05:31;;;;;;;4.28;3.20;;;18.10;99.90;;;;;;5088961;28;20020;-85
2021/09/13 00:07:57;;;;;;;5.75;3.03;;;18.20;99.90;;;;;;5061710;28;20338;-88
2021/09/13 00:10:23;;;;;;;4.30;3.50;;;18.10;99.90;;;;;;5073899;28;20028;-85
2021/09/13 00:12:49;;;;;;;3.40;3.10;;;18.10;99.90;;;;;;5067953;28;20021;-88
2021/09/13 00:15:14;;;;;;;3.55;3.05;;;18.00;99.90;;;;;;5082826;28;20391;-88
2021/09/13 00:17:40;;;;;;;4.82;2.72;;;18.00;99.90;;;;;;5080156;28;20034;-90
2021/09/13 00:20:06;;;;;;;4.65;3.05;;;18.10;99.90;;;;;;5085362;28;20510;-89
2021/09/13 00:22:32;;;;;;;3.97;3.63;;;18.20;99.90;;;;;;5082395;28;20651;-88
2021/09/13 00:24:58;;;;;;;4.30;3.30;;;18.00;99.90;;;;;;5068494;28;20131;-87
2021/09/13 00:27:23;;;;;;;3.30;3.00;;;17.80;99.90;;;;;;5087552;28;20028;-87
2021/09/13 00:29:49;;;;;;;4.28;2.88;;;17.80;99.90;;;;;;5062935;28;20082;-90
2021/09/13 00:32:15;;;;;;;3.55;2.70;;;17.70;99.90;;;;;;5085109;28;20488;-92
2021/09/13 00:34:40;;;;;;;5.20;3.08;;;17.60;99.90;;;;;;5080598;28;20524;-93
2021/09/13 00:37:06;;;;;;;3.05;2.72;;;17.50;99.90;;;;;;5068377;28;20036;-88
2021/09/13 00:39:32;;;;;;;4.05;3.22;;;17.50;99.90;;;;;;5086913;28;20024;-88
2021/09/13 00:41:58;;;;;;;4.68;2.72;;;17.50;99.90;;;;;;5077342;28;20036;-90
2021/09/13 00:44:24;;;;;;;6.00;3.03;;;17.50;99.90;;;;;;5083781;28;20119;-86
2021/09/13 00:46:50;;;;;;;4.45;3.08;;;17.50;99.90;;;;;;5092910;28;20499;-87
2021/09/13 00:49:15;;;;;;;4.90;3.25;;;17.60;99.90;;;;;;5091232;28;20020;-87
2021/09/13 00:51:41;;;;;;;3.20;2.88;;;17.60;99.90;;;;;;5084782;28;20033;-87
2021/09/13 00:54:07;;;;;;;4.10;2.92;;;17.50;99.90;;;;;;5083640;28;20044;-87
2021/09/13 00:56:33;;;;;;;6.75;3.28;;;17.50;99.90;;;;;;5092837;28;20028;-88
2021/09/13 00:58:59;;;;;;;3.50;3.20;;;17.60;99.90;;;;;;5092118;28;20085;-88
2021/09/13 01:01:24;;;;;;;3.95;3.20;;;17.50;99.90;;;;;;5092259;28;20126;-86
2021/09/13 01:03:50;;;;;;;4.88;2.92;;;17.60;99.90;;;;;;5092254;28;20020;-87
2021/09/13 01:06:16;;;;;;;4.93;3.20;;;17.40;99.90;;;;;;5073636;28;20063;-88
2021/09/13 01:08:43;;;;;;;4.30;3.28;;;17.40;99.90;;;;;;5092017;28;20486;-88
2021/09/13 01:11:10;;;;;;;4.70;3.35;;;17.30;99.90;;;;;;5073774;28;20031;-87
2021/09/13 01:13:36;;;;;;;3.25;2.95;;;17.40;99.90;;;;;;5092941;28;20020;-87
2021/09/13 01:16:05;;;;;;;3.50;3.10;;;17.50;99.90;;;;;;5091661;28;20036;-88
2021/09/13 01:18:31;;;;;;;3.20;2.90;;;17.50;99.90;;;;;;5092009;28;20028;-87
2021/09/13 01:20:57;;;;;;;3.08;2.80;;;17.40;99.90;;;;;;5090113;28;20028;-87
2021/09/13 01:23:27;;;;;;;5.53;3.15;;;17.30;99.90;;;;;;5076771;28;20058;-87
2021/09/13 01:25:53;;;;;;;4.20;3.13;;;17.20;99.90;;;;;;5076527;28;20040;-88
2021/09/13 01:28:19;;;;;;;3.85;3.30;;;17.30;99.90;;;;;;5079140;28;20108;-86
2021/09/13 01:30:45;;;;;;;3.55;3.13;;;17.20;99.90;;;;;;5080107;28;20107;-87
2021/09/13 01:33:10;;;;;;;4.28;3.40;;;17.20;99.90;;;;;;5081045;28;20040;-87
2021/09/13 01:35:36;;;;;;;3.65;3.25;;;17.30;99.90;;;;;;5078928;28;20020;-87
2021/09/13 01:38:02;;;;;;;5.07;3.42;;;17.30;99.90;;;;;;5075099;28;20115;-87
2021/09/13 01:40:27;;;;;;;3.58;3.28;;;17.20;99.90;;;;;;5092990;28;20034;-87
2021/09/13 01:42:58;;;;;;;4.22;3.08;;;17.10;99.90;;;;;;5082058;28;20139;-87
2021/09/13 01:45:23;;;;;;;4.22;2.85;;;17.20;99.90;;;;;;5080464;28;20036;-87
2021/09/13 01:47:49;;;;;;;3.33;3.03;;;17.10;99.90;;;;;;5079995;28;20043;-87
2021/09/13 01:50:15;;;;;;;4.18;3.13;;;17.10;99.90;;;;;;5076180;28;20450;-87
2021/09/13 01:52:41;;;;;;;3.42;3.13;;;17.00;99.90;;;;;;5074500;28;20024;-87
2021/09/13 01:55:07;;;;;;;4.00;3.15;;;17.20;99.90;;;;;;5062099;28;20070;-87
2021/09/13 01:57:33;;;;;;;3.25;3.00;;;17.30;99.90;;;;;;5080240;28;20031;-87
2021/09/13 01:59:59;;;;;;;3.20;2.90;;;17.20;99.90;;;;;;5079715;28;20400;-86
2021/09/13 02:02:24;;;;;;;6.38;3.28;;;17.20;99.90;;;;;;5078222;28;20103;-87
2021/09/13 02:04:50;;;;;;;3.50;3.20;;;17.10;99.90;;;;;;5057145;28;20063;-87
2021/09/13 02:07:16;;;;;;;4.50;2.90;;;17.10;99.90;;;;;;5078556;28;20040;-87
2021/09/13 02:09:41;;;;;;;3.60;3.03;;;16.90;99.90;;;;;;5080299;28;20021;-87
2021/09/13 02:12:07;;;;;;;5.82;3.28;;;16.80;99.90;;;;;;5080308;28;20052;-87
2021/09/13 02:14:33;;;;;;;4.05;3.20;;;16.80;99.90;;;;;;5077290;28;20035;-87
2021/09/13 02:16:58;;;;;;;3.80;3.40;;;16.80;99.90;;;;;;5074500;28;20029;-87
2021/09/13 02:19:24;;;;;;;4.82;3.00;;;16.70;99.90;;;;;;5091847;28;20485;-86
2021/09/13 02:21:49;;;;;;;4.28;3.10;;;16.70;99.90;;;;;;5081666;28;20484;-87
2021/09/13 02:24:15;;;;;;;3.90;3.30;;;16.70;99.90;;;;;;5055864;28;20062;-87
2021/09/13 02:26:40;;;;;;;3.35;3.05;;;16.70;99.90;;;;;;5079208;28;20032;-86
2021/09/13 02:29:06;;;;;;;3.90;3.50;;;16.80;99.90;;;;;;5091297;28;20492;-87
2021/09/13 02:31:32;;;;;;;4.65;3.50;;;16.80;99.90;;;;;;5076919;28;20094;-86
2021/09/13 02:33:57;;;;;;;3.70;3.10;;;16.80;99.90;;;;;;5079285;28;20497;-86
2021/09/13 02:36:23;;;;;;;3.30;3.00;;;17.00;99.90;;;;;;5079202;28;20020;-86
2021/09/13 02:38:48;;;;;;;6.25;3.60;;;16.90;99.90;;;;;;5079846;28;20377;-87
2021/09/13 02:41:14;;;;;;;3.40;3.08;;;16.80;99.90;;;;;;5057715;28;20137;-86
2021/09/13 02:43:40;;;;;;;4.72;3.20;;;16.80;99.90;;;;;;5075403;28;20040;-86
2021/09/13 02:46:06;;;;;;;5.10;3.35;;;16.80;99.90;;;;;;5079925;28;20036;-87
2021/09/13 02:48:31;;;;;;;5.10;3.53;;;16.80;99.90;;;;;;5079207;28;20516;-87
2021/09/13 02:50:57;;;;;;;3.20;2.90;;;16.90;99.90;;;;;;5079240;28;20024;-86
2021/09/13 02:53:22;;;;;;;4.18;3.55;;;16.90;99.90;;;;;;5076340;28;20024;-86
2021/09/13 02:55:48;;;;;;;3.88;3.17;;;16.80;99.90;;;;;;5074991;28;20074;-87
2021/09/13 02:58:14;;;;;;;3.92;3.13;;;16.80;99.90;;;;;;5090971;28;20081;-87
2021/09/13 03:00:39;;;;;;;5.70;3.50;;;16.80;99.90;;;;;;5082919;28;20029;-87
2021/09/13 03:03:05;;;;;;;5.07;3.40;;;16.70;99.90;;;;;;5079313;28;20024;-87
2021/09/13 03:05:31;;;;;;;4.03;3.05;;;16.70;99.90;;;;;;5077294;28;20063;-86
2021/09/13 03:07:56;;;;;;;3.72;3.42;;;16.70;99.90;;;;;;5074376;28;20033;-87
2021/09/13 03:10:22;;;;;;;4.07;3.35;;;16.60;99.90;;;;;;5077723;28;20025;-86
2021/09/13 03:12:48;;;;;;;4.57;3.15;;;16.50;99.90;;;;;;5078690;28;20028;-86
2021/09/13 03:15:13;;;;;;;3.60;3.30;;;16.60;99.90;;;;;;5079449;28;20033;-87
2021/09/13 03:17:40;;;;;;;5.57;3.25;;;16.50;99.90;;;;;;5079064;28;20024;-86
2021/09/13 03:20:07;;;;;;;4.03;3.63;;;16.60;99.90;;;;;;5074423;28;20381;-87
2021/09/13 03:22:33;;;;;;;4.43;2.97;;;16.50;99.90;;;;;;5075775;28;20498;-87
2021/09/13 03:24:59;;;;;;;4.47;3.60;;;16.50;99.90;;;;;;5081219;28;20044;-87
2021/09/13 03:27:25;;;;;;;3.33;3.03;;;16.50;99.90;;;;;;5082326;28;20407;-86
2021/09/13 03:29:50;;;;;;;3.90;3.28;;;16.50;99.90;;;;;;5082567;28;20384;-86
2021/09/13 03:32:16;;;;;;;3.65;3.35;;;16.50;99.90;;;;;;5078490;28;20039;-87
2021/09/13 03:34:41;;;;;;;3.90;3.42;;;16.60;99.90;;;;;;5077867;28;20099;-86
2021/09/13 03:37:07;;;;;;;3.60;3.30;;;16.50;99.90;;;;;;5094495;28;20160;-87
2021/09/13 03:39:33;;;;;;;4.13;3.58;;;16.50;99.90;;;;;;5087141;28;20108;-87
2021/09/13 03:41:59;;;;;;;6.40;3.30;;;16.50;99.90;;;;;;5085933;28;20545;-87
2021/09/13 03:44:24;;;;;;;5.43;3.22;;;16.50;99.90;;;;;;5093870;28;20035;-87
2021/09/13 03:46:50;;;;;;;5.68;3.30;;;16.60;99.90;;;;;;5077845;28;20094;-87
2021/09/13 03:49:16;;;;;;;3.72;2.92;;;16.60;99.90;;;;;;5080991;28;20029;-87
2021/09/13 03:51:41;;;;;;;4.75;3.53;;;16.60;99.90;;;;;;5082653;28;20032;-87
2021/09/13 03:54:07;;;;;;;3.80;3.08;;;16.50;99.90;;;;;;5082212;28;20032;-87
2021/09/13 03:56:33;;;;;;;5.38;3.15;;;16.50;99.90;;;;;;5061536;28;20048;-87
2021/09/13 03:58:58;;;;;;;3.80;3.42;;;16.50;99.90;;;;;;5077192;28;20033;-87
2021/09/13 04:01:24;;;;;;;4.68;3.30;;;16.40;99.90;;;;;;5080089;28;20031;-86
2021/09/13 04:03:51;;;;;;;3.83;3.40;;;16.50;99.90;;;;;;5081649;28;20078;-87
2021/09/13 04:06:37;;;;;;;3.85;3.22;;;16.50;99.90;;;;;;5063552;28;20037;-87
2021/09/13 04:14:15;;;;;;;3.60;3.30;;;16.50;99.90;;;;;;5078229;28;20028;-87
2021/09/13 04:16:42;;;;;;;4.32;3.53;;;16.50;99.90;;;;;;5093442;28;20466;-87
2021/09/13 04:19:08;;;;;;;3.95;3.10;;;16.50;99.90;;;;;;5092976;28;20495;-87
2021/09/13 04:21:34;;;;;;;3.75;3.33;;;16.40;99.90;;;;;;5086120;28;20028;-87
2021/09/13 04:23:59;;;;;;;4.03;3.20;;;16.50;99.90;;;;;;5083701;28;20047;-87
2021/09/13 04:26:25;;;;;;;5.68;3.38;;;16.40;99.90;;;;;;5092965;28;20419;-87
2021/09/13 04:28:51;;;;;;;5.40;4.22;;;16.50;99.90;;;;;;5059416;28;20064;-87
2021/09/13 04:31:16;;;;;;;4.18;3.70;;;16.70;99.90;;;;;;5080858;28;20494;-86
2021/09/13 04:33:42;;;;;;;6.85;3.53;;;16.80;99.90;;;;;;5081145;28;20040;-87
2021/09/13 04:36:08;;;;;;;4.60;3.67;;;16.80;99.90;;;;;;5083931;28;20024;-87
2021/09/13 04:38:33;;;;;;;7.40;4.30;;;16.90;99.90;;;;;;5074700;28;20572;-87
2021/09/13 04:40:59;;;;;;;4.28;3.50;;;16.90;99.90;;;;;;5076413;28;20388;-87
2021/09/13 04:43:24;;;;;;;4.60;3.92;;;17.00;99.90;;;;;;5079207;28;20134;-87
2021/09/13 04:45:50;;;;;;;4.88;3.63;;;16.90;99.90;;;;;;5081422;28;20024;-87
2021/09/13 04:48:16;;;;;;;4.88;3.33;;;16.90;99.90;;;;;;5081074;28;20037;-87
2021/09/13 04:50:41;;;;;;;4.70;3.60;;;17.00;99.90;;;;;;5080474;28;20020;-87
2021/09/13 04:53:07;;;;;;;4.22;3.70;;;17.10;99.90;;;;;;5057966;28;20024;-86
2021/09/13 04:55:34;;;;;;;4.00;3.60;;;17.10;99.90;;;;;;5093717;28;20035;-87
2021/09/13 04:58:00;;;;;;;4.45;3.45;;;17.00;99.90;;;;;;5081811;28;20074;-87
2021/09/13 05:00:26;;;;;;;4.05;3.67;;;17.00;99.90;;;;;;5062130;28;20393;-87
2021/09/13 05:02:51;;;;;;;4.20;3.80;;;17.00;99.90;;;;;;5081272;28;20030;-87
2021/09/13 05:05:17;;;;;;;4.88;3.47;;;16.90;99.90;;;;;;5077141;28;20537;-87
2021/09/13 05:07:43;;;;;;;7.97;4.05;;;16.90;99.90;;;;;;5076979;28;20047;-87
2021/09/13 05:10:09;;;;;;;4.13;3.75;;;16.80;99.90;;;;;;5080525;28;20033;-86
2021/09/13 05:12:35;;;;;;;5.85;3.78;;;16.70;99.90;;;;;;5080722;28;20025;-87
2021/09/13 05:15:00;;;;;;;4.15;3.75;;;16.70;99.90;;;;;;5080709;28;20036;-85
2021/09/13 05:17:26;;;;;;;4.40;3.67;;;16.70;99.90;;;;;;5060615;28;20020;-86
2021/09/13 05:19:51;;;;;;;4.78;3.75;;;16.60;99.90;;;;;;5075888;28;20029;-86
2021/09/13 05:22:17;;;;;;;4.47;3.60;;;16.70;99.90;;;;;;5079326;28;20036;-87
2021/09/13 05:24:43;;;;;;;7.25;4.22;;;16.70;99.90;;;;;;5080835;28;20471;-86
2021/09/13 05:27:08;;;;;;;4.70;3.75;;;16.70;99.90;;;;;;5083648;28;20040;-86
2021/09/13 05:29:36;;;;;;;6.43;4.72;;;16.70;99.90;;;;;;5091461;28;20061;-86
2021/09/13 05:32:02;;;;;;;4.80;4.40;;;16.70;99.90;;;;;;5075482;28;20051;-87
2021/09/13 05:34:28;;;;;;;4.70;4.10;;;16.80;99.90;;;;;;5092387;28;20045;-87
2021/09/13 05:36:53;;;;;;;5.07;3.95;;;16.80;99.90;;;;;;5081834;28;20125;-87
2021/09/13 05:39:19;;;;;;;4.47;3.95;;;16.80;99.90;;;;;;5085630;28;20020;-86
2021/09/13 05:41:45;;;;;;;4.60;4.20;;;16.80;99.90;;;;;;5091662;28;20039;-86
2021/09/13 05:44:11;;;;;;;6.50;4.45;;;16.80;99.90;;;;;;5091425;28;20350;-86
2021/09/13 05:46:37;;;;;;;6.32;4.00;;;16.80;99.90;;;;;;5075623;28;20117;-83
2021/09/13 05:49:04;;;;;;;4.70;4.13;;;16.90;99.90;;;;;;5079644;28;20071;-84
2021/09/13 05:51:30;;;;;;;4.50;3.88;;;16.80;99.90;;;;;;5080448;28;20037;-84
2021/09/13 05:53:55;;;;;;;5.72;4.35;;;16.80;99.90;;;;;;5079781;28;20401;-84
2021/09/13 05:56:21;;;;;;;5.18;4.30;;;16.80;99.90;;;;;;5076565;28;20081;-84
2021/09/13 05:58:47;;;;;;;7.78;4.63;;;16.90;99.90;;;;;;5074981;28;20021;-85
2021/09/13 06:01:12;;;;;;;8.52;4.45;;;16.90;99.90;;;;;;5079617;28;20028;-84
2021/09/13 06:03:38;;;;;;;7.35;4.57;;;16.80;99.90;;;;;;5079700;28;20032;-85
2021/09/13 06:06:03;;;;;;;5.57;4.45;;;16.90;99.90;;;;;;5079395;28;20047;-86
2021/09/13 06:08:29;;;;;;;6.82;4.60;;;17.00;99.90;;;;;;5078279;28;20101;-87
2021/09/13 06:10:54;;;;;;;6.22;4.35;;;17.10;99.90;;;;;;5074902;28;20013;-87
2021/09/13 06:13:20;;;;;;;5.28;4.60;;;17.10;99.90;;;;;;5090921;28;20133;-86
2021/09/13 06:15:46;;;;;;;4.90;4.20;;;17.10;99.90;;;;;;5082507;28;20038;-88
2021/09/13 06:18:14;;;;;;;7.90;4.28;;;17.00;99.90;;;;;;5055596;28;20536;-87
2021/09/13 06:20:40;;;;;;;7.35;4.28;;;17.10;99.90;;;;;;5079252;28;20046;-88
2021/09/13 06:23:05;;;;;;;5.07;3.92;;;17.10;99.90;;;;;;5074021;28;20496;-87
2021/09/13 06:25:31;;;;;;;7.90;4.53;;;17.20;99.90;;;;;;5076225;28;20090;-87
2021/09/13 06:27:56;;;;;;;7.80;4.43;;;17.30;99.90;;;;;;5055866;28;20036;-87
2021/09/13 06:30:22;;;;;;;4.88;4.30;;;17.30;99.90;;;;;;5080248;28;20032;-89
2021/09/13 06:32:48;;;;;;;5.30;4.40;;;17.30;99.90;;;;;;5081152;28;20613;-89
2021/09/13 06:35:14;;;;;;;7.32;4.60;;;17.40;99.90;;;;;;5090847;28;20376;-88
2021/09/13 06:37:39;;;;;;;5.95;4.63;;;17.40;99.90;;;;;;5081885;28;20028;-88
2021/09/13 06:40:06;;;;;;;5.72;4.50;;;17.50;99.90;;;;;;5088192;28;20119;-87
2021/09/13 06:42:32;;;;;;;7.03;4.60;;;17.60;99.90;;;;;;5084231;28;20029;-87
2021/09/13 06:44:58;;;;;;;5.20;4.03;;;17.70;99.90;;;;;;5079703;28;20031;-87
2021/09/13 06:49:55;;;;;;;4.68;4.28;;;17.90;99.90;;;;;;5075227;28;20025;-92
2021/09/13 06:52:21;;;;;;;5.35;4.22;;;18.00;99.90;;;;;;5060882;28;20162;-91
2021/09/13 06:54:47;;;;;;;6.25;4.47;;;18.10;99.90;;;;;;5080732;28;20048;-93
2021/09/13 06:57:12;;;;;;;6.38;4.60;;;18.20;99.90;;;;;;5080333;28;20033;-92
2021/09/13 06:59:38;;;;;;;5.85;4.20;;;18.30;99.90;;;;;;5060490;28;20024;-91
2021/09/13 07:02:07;;;;;;;7.13;4.60;;;18.40;99.90;;;;;;5096036;28;20031;-93
2021/09/13 07:04:32;;;;;;;6.53;4.32;;;18.40;99.90;;;;;;5080646;28;20027;-94
2021/09/13 07:06:58;;;;;;;10.48;4.95;;;18.50;99.90;;;;;;5075603;28;20035;-94
2021/09/13 07:09:24;;;;;;;7.38;4.50;;;18.60;99.90;;;;;;5095458;28;20024;-92
2021/09/13 07:11:50;;;;;;;8.57;4.70;;;18.70;99.90;;;;;;5069604;28;20074;-81
2021/09/13 07:14:16;;;;;;;8.15;4.88;;;18.90;99.90;;;;;;5080304;28;20484;-83
2021/09/13 07:16:41;;;;;;;9.35;5.00;;;19.00;99.90;;;;;;5078553;28;20027;-95
2021/09/13 07:19:07;;;;;;;6.65;5.32;;;19.20;99.90;;;;;;5064391;28;20227;-83
2021/09/13 07:21:33;;;;;;;9.25;5.50;;;19.30;99.90;;;;;;5082502;28;20025;-80
2021/09/13 07:23:59;;;;;;;5.80;5.07;;;19.20;99.90;;;;;;5079217;28;20458;-87
2021/09/13 07:26:24;;;;;;;7.72;4.97;;;19.20;99.90;;;;;;5084121;28;20036;-79
2021/09/13 07:28:50;;;;;;;5.68;5.03;;;19.20;99.90;;;;;;5092399;28;20411;-79
2021/09/13 07:31:16;;;;;;;7.70;5.28;;;19.40;99.90;;;;;;5091782;28;20166;-79
2021/09/13 07:33:42;;;;;;;6.35;5.03;;;19.40;99.90;;;;;;5089284;28;20032;-79
2021/09/13 07:36:08;;;;;;;8.85;5.82;;;19.40;99.90;;;;;;5082932;28;20024;-79
2021/09/13 07:38:34;;;;;;;7.75;5.78;;;19.30;99.90;;;;;;5076440;28;20546;-79
2021/09/13 07:40:59;;;;;;;7.60;5.35;;;19.40;99.90;;;;;;5082592;28;20034;-80
2021/09/13 07:43:25;;;;;;;7.45;5.82;;;19.60;99.90;;;;;;5088208;28;20036;-86
2021/09/13 07:45:51;;;;;;;10.00;5.93;;;19.90;99.90;;;;;;5062968;28;20028;-79
2021/09/13 07:48:17;;;;;;;9.60;5.97;;;20.10;99.90;;;;;;5081567;28;20042;-80
2021/09/13 07:50:44;;;;;;;7.00;5.55;;;20.20;99.90;;;;;;5080099;28;20408;-81
2021/09/13 07:53:10;;;;;;;11.65;5.50;;;20.40;99.90;;;;;;5090323;28;20492;-80
2021/09/13 07:55:36;;;;;;;10.50;5.80;;;20.50;99.90;;;;;;5092910;28;20032;-82
2021/09/13 07:58:02;;;;;;;6.07;5.47;;;20.60;99.90;;;;;;5089010;28;20051;-81
2021/09/13 08:00:27;;;;;;;9.40;6.22;;;20.80;99.90;;;;;;5089200;28;20035;-81
2021/09/13 08:02:53;;;;;;;9.65;5.90;;;20.90;99.90;;;;;;5089194;28;20021;-81
2021/09/13 08:05:18;;;;;;;7.50;5.85;;;21.10;99.90;;;;;;5090045;28;20040;-81
2021/09/13 08:07:44;;;;;;;6.05;5.18;;;21.10;1.00;;;;;;5092714;28;20532;-81
2021/09/13 08:10:10;;;;;;;8.27;6.13;;;21.40;99.90;;;;;;5089665;28;20028;-81
2021/09/13 08:12:36;;;;;;;8.60;5.80;;;21.40;99.90;;;;;;5084491;28;20055;-81
2021/09/13 08:15:02;;;;;;;8.38;5.53;;;21.50;99.90;;;;;;5089025;28;20068;-80
2021/09/13 08:17:28;;;;;;;7.25;5.45;;;21.60;99.90;;;;;;5089654;28;20025;-81
2021/09/13 08:19:54;;;;;;;6.05;5.00;;;21.60;99.90;;;;;;5091564;28;20100;-81
2021/09/13 08:22:19;;;;;;;6.78;5.18;;;21.90;99.90;;;;;;5091083;28;20032;-80
2021/09/13 08:24:45;;;;;;;6.80;5.38;;;22.00;99.90;;;;;;5084260;28;20390;-81
2021/09/13 08:27:10;;;;;;;6.75;4.85;;;22.00;99.90;;;;;;5076725;28;20089;-79
2021/09/13 08:29:36;;;;;;;6.88;5.00;;;22.10;99.90;;;;;;5078728;28;20032;-80
2021/09/13 08:32:02;;;;;;;7.03;5.22;;;22.20;99.90;;;;;;5086842;28;20039;-80
2021/09/13 08:34:28;;;;;;;6.47;4.90;;;22.40;99.90;;;;;;5090791;28;20260;-80
2021/09/13 08:36:53;;;;;;;5.68;5.07;;;22.60;99.90;;;;;;5088874;28;20488;-80
2021/09/13 08:39:19;;;;;;;6.63;4.95;;;22.60;99.90;;;;;;5088195;28;20028;-83
2021/09/13 08:41:45;;;;;;;5.10;4.38;;;22.90;99.90;;;;;;5089333;28;20047;-81
2021/09/13 08:44:15;;;;;;;5.03;4.53;;;23.00;99.90;;;;;;5072795;28;20103;-80
2021/09/13 08:46:51;;;;;;;5.00;4.50;;;23.10;99.90;;;;;;5092668;28;20036;-80
2021/09/13 08:49:36;;;;;;;6.38;3.97;;;23.20;99.90;;;;;;5089967;28;20028;-81
2021/09/13 08:52:04;;;;;;;5.10;3.90;;;23.30;99.90;;;;;;5082269;28;20036;-82
2021/09/13 08:54:32;;;;;;;4.28;3.85;;;23.60;99.90;;;;;;5081675;28;20028;-80
2021/09/13 08:57:08;;;;;;;8.18;4.22;;;23.80;99.90;;;;;;5076488;28;20020;-81
2021/09/13 08:59:38;;;;;;;5.00;3.92;;;23.90;99.90;;;;;;5076698;28;20032;-81
2021/09/13 09:02:05;;;;;;;4.18;3.63;;;24.00;99.90;;;;;;5089831;28;20028;-81
2021/09/13 09:04:32;;;;;;;4.35;3.95;;;24.00;99.90;;;;;;5091857;28;20024;-80
2021/09/13 09:07:07;;;;;;;19.95;6.10;;;24.10;99.90;;;;;;5087634;28;20024;-80
2021/09/13 09:09:34;;;;;;;6.20;4.75;;;24.30;99.90;;;;;;5087961;28;20024;-81
2021/09/13 09:12:09;;;;;;;4.70;4.10;;;24.40;99.90;;;;;;5088014;28;20059;-81
2021/09/13 09:14:45;;;;;;;6.55;4.40;;;24.50;99.90;;;;;;5070871;28;20478;-81
2021/09/13 09:17:20;;;;;;;6.95;3.85;;;24.70;99.90;;;;;;5072254;28;20024;-81
2021/09/13 09:19:46;;;;;;;6.05;3.83;;;25.10;99.90;;;;;;5087939;28;20024;-81
2021/09/13 09:22:26;;;;;;;4.50;3.80;;;25.60;99.90;;;;;;5088367;28;20036;-81
2021/09/13 09:24:53;;;;;;;5.32;3.33;;;26.40;99.90;;;;;;5087549;28;20051;-81
2021/09/13 09:27:19;;;;;;;4.70;3.63;;;29.90;99.90;;;;;;5088283;28;20040;-81
2021/09/13 09:29:45;;;;;;;3.50;3.10;;;34.00;99.90;;;;;;5088488;28;20027;-81
2021/09/13 09:32:24;;;;;;;3.92;3.63;;;37.20;99.90;;;;;;5072112;28;20152;-81
2021/09/13 09:34:50;;;;;;;4.28;3.60;;;39.30;99.90;;;;;;5087887;28;20506;-81
2021/09/13 09:37:17;;;;;;;5.57;3.45;;;40.50;99.90;;;;;;5089726;28;20103;-80
2021/09/13 09:39:53;;;;;;;6.47;3.60;;;41.80;99.90;;;;;;5068535;28;20392;-81
2021/09/13 09:42:36;;;;;;;4.97;3.60;;;43.20;99.90;;;;;;5087860;28;20036;-81
2021/09/13 09:45:24;;;;;;;4.82;3.70;;;43.50;99.90;;;;;;5088039;28;20027;-81
2021/09/13 09:48:10;;;;;;;4.05;3.40;;;44.30;99.90;;;;;;5087148;28;20558;-81
2021/09/13 09:50:36;;;;;;;3.60;3.22;;;43.70;99.90;;;;;;5087274;28;20016;-81
2021/09/13 09:53:18;;;;;;;3.72;3.42;;;44.50;99.90;;;;;;5088979;28;20046;-81
2021/09/13 09:55:50;;;;;;;4.93;3.58;;;44.30;99.90;;;;;;5087777;28;20040;-81
2021/09/13 09:58:16;;;;;;;5.93;3.30;;;44.10;99.90;;;;;;5088243;28;20020;-81
2021/09/13 10:00:47;;;;;;;3.97;3.60;;;45.50;99.90;;;;;;5087567;28;20103;-81
2021/09/13 10:03:34;;;;;;;3.92;3.40;;;44.80;99.90;;;;;;5087287;28;20078;-81
2021/09/13 10:06:00;;;;;;;3.75;3.40;;;45.80;99.90;;;;;;5087034;28;20103;-82
2021/09/13 10:08:26;;;;;;;3.60;3.30;;;46.40;99.90;;;;;;5090698;28;20115;-82
2021/09/13 10:10:52;;;;;;;4.00;3.67;;;46.10;99.90;;;;;;5090911;28;20032;-82
2021/09/13 10:13:21;;;;;;;3.92;3.50;;;45.60;99.90;;;;;;5090937;28;20028;-82
2021/09/13 10:15:47;;;;;;;3.63;3.33;;;46.30;99.90;;;;;;5090585;28;20020;-82
2021/09/13 10:18:13;;;;;;;3.85;3.45;;;46.10;99.90;;;;;;5091026;28;20020;-82
2021/09/13 10:20:41;;;;;;;4.47;3.15;;;45.10;99.90;;;;;;5090851;28;20032;-82
2021/09/13 10:23:07;;;;;;;3.28;2.97;;;46.20;99.90;;;;;;5074212;28;20591;-82
2021/09/13 10:25:32;;;;;;;4.65;3.10;;;46.70;99.90;;;;;;5077325;28;20028;-82
2021/09/13 10:28:05;;;;;;;3.78;3.10;;;46.20;99.90;;;;;;5079051;28;20147;-82
2021/09/13 10:30:31;;;;;;;4.50;3.20;;;46.80;99.90;;;;;;5079352;28;20017;-82
2021/09/13 10:33:12;;;;;;;4.35;3.33;;;47.30;99.90;;;;;;5079442;28;20036;-82
2021/09/13 10:36:02;;;;;;;6.10;3.25;;;47.40;99.90;;;;;;5081229;28;20047;-82
2021/09/13 10:38:42;;;;;;;4.40;4.05;;;46.30;99.90;;;;;;5069301;28;20039;-82
2021/09/13 10:41:08;;;;;;;3.63;3.33;;;46.90;99.90;;;;;;5094986;28;20032;-84
2021/09/13 10:43:34;;;;;;;3.85;3.10;;;46.60;99.90;;;;;;5080841;28;20028;-82
2021/09/13 10:45:59;;;;;;;7.63;3.35;;;46.40;99.90;;;;;;5093433;28;20020;-82
2021/09/13 10:48:25;;;;;;;3.08;2.88;;;46.40;99.90;;;;;;5088935;28;20173;-82
2021/09/13 10:50:56;;;;;;;4.55;3.20;;;46.60;99.90;;;;;;5083356;28;20506;-82
2021/09/13 10:53:21;;;;;;;5.25;3.33;;;46.60;99.90;;;;;;5079399;28;20034;-81
2021/09/13 10:55:55;;;;;;;4.00;3.10;;;46.40;99.90;;;;;;5078199;28;20016;-82
2021/09/13 10:58:37;;;;;;;3.03;2.40;;;47.30;99.90;;;;;;5095253;28;20495;-83
2021/09/13 11:01:09;;;;;;;2.78;2.58;;;44.60;99.90;;;;;;5083670;28;20400;-83
2021/09/13 11:03:37;;;;;;;3.42;2.70;;;45.40;99.90;;;;;;5082209;28;20024;-82
2021/09/13 11:12:01;;;;;;;3.25;2.47;;;46.70;99.90;;;;;;6020074;23;20005;-86
2021/09/13 11:14:28;;;;;;;2.92;2.72;;;47.70;99.90;;;;;;5117818;22;20574;-87
2021/09/13 11:17:01;;;;;;;2.95;2.70;;;46.30;99.90;;;;;;5052392;28;20485;-85
2021/09/13 11:19:27;;;;;;;3.15;2.85;;;48.30;99.90;;;;;;5050043;28;20036;-85
2021/09/13 11:22:05;;;;;;;3.50;2.50;;;47.50;99.90;;;;;;5053162;28;20037;-85
2021/09/13 11:24:34;;;;;;;2.85;2.65;;;44.80;99.90;;;;;;5052198;28;20021;-83
2021/09/13 11:27:05;;;;;;;4.00;3.00;;;42.30;99.90;;;;;;5052090;28;20043;-83
2021/09/13 11:29:34;;;;;;;6.57;2.67;;;43.80;99.90;;;;;;5052270;28;20025;-83
2021/09/13 11:32:10;;;;;;;5.30;2.95;;;42.60;99.90;;;;;;5052040;28;20025;-83
2021/09/13 11:34:39;;;;;;;3.67;2.67;;;45.00;99.90;;;;;;5052983;28;20021;-83
2021/09/13 11:37:06;;;;;;;2.90;2.70;;;45.80;99.90;;;;;;5052306;28;20469;-83
2021/09/13 11:39:44;;;;;;;2.78;2.47;;;45.90;99.90;;;;;;5052054;28;20029;-83
2021/09/13 11:42:19;;;;;;;2.92;2.65;;;45.90;99.90;;;;;;5052205;28;20110;-83
2021/09/13 11:44:46;;;;;;;3.58;2.80;;;45.40;99.90;;;;;;5050825;28;20120;-83
2021/09/13 11:47:15;;;;;;;3.05;2.80;;;45.20;99.90;;;;;;5051645;28;20037;-83
2021/09/13 11:49:43;;;;;;;3.00;2.70;;;45.80;99.90;;;;;;5052458;28;20481;-82
2021/09/13 11:52:17;;;;;;;2.95;2.53;;;45.60;99.90;;;;;;5052242;28;20120;-83
2021/09/13 11:55:07;;;;;;;2.72;2.53;;;45.40;99.90;;;;;;5051539;28;20025;-82
2021/09/13 11:57:44;;;;;;;3.08;2.78;;;46.90;99.90;;;;;;5051358;28;20079;-85
2021/09/13 12:00:10;;;;;;;3.78;2.60;;;46.00;99.90;;;;;;5033967;28;20082;-81
2021/09/13 12:02:37;;;;;;;2.95;2.60;;;46.90;99.90;;;;;;5051481;28;20082;-83
2021/09/13 12:05:11;;;;;;;2.70;2.40;;;47.90;99.90;;;;;;5051763;28;20033;-84
2021/09/13 12:07:37;;;;;;;4.25;2.70;;;45.60;99.90;;;;;;5051969;28;20043;-84
2021/09/13 12:10:03;;;;;;;2.65;2.45;;;45.80;99.90;;;;;;5052546;28;20033;-83
2021/09/13 12:12:30;;;;;;;3.10;2.80;;;44.90;99.90;;;;;;5050543;28;20025;-84
2021/09/13 12:15:03;;;;;;;3.00;2.67;;;43.20;99.90;;;;;;5051310;28;20048;-84
2021/09/13 12:17:37;;;;;;;2.20;2.10;;;44.90;99.90;;;;;;5051408;28;20071;-83
2021/09/13 12:20:10;;;;;;;3.72;2.45;;;45.40;99.90;;;;;;5051315;28;20025;-84
2021/09/13 12:22:37;;;;;;;2.70;2.50;;;46.50;99.90;;;;;;5051356;28;20082;-84
2021/09/13 12:25:19;;;;;;;2.60;2.40;;;45.20;99.90;;;;;;5035576;28;20056;-83
2021/09/13 12:27:50;;;;;;;2.70;2.50;;;43.50;99.90;;;;;;5050714;28;20401;-84
2021/09/13 12:30:17;;;;;;;2.67;2.47;;;44.90;99.90;;;;;;5049977;28;20071;-84
2021/09/13 12:32:58;;;;;;;3.17;2.60;;;44.90;99.90;;;;;;5051039;28;20040;-84
2021/09/13 12:35:34;;;;;;;3.42;3.13;;;44.00;99.90;;;;;;5051457;28;20028;-84
2021/09/13 12:38:05;;;;;;;4.55;4.15;;;44.80;99.90;;;;;;5036398;28;20112;-84
2021/09/13 12:40:31;;;;;;;4.90;4.50;;;45.70;99.90;;;;;;5052478;28;20404;-84
2021/09/13 12:42:57;;;;;;;2.90;2.70;;;45.70;99.90;;;;;;5033366;28;20029;-84
2021/09/13 12:45:26;;;;;;;5.57;2.85;;;45.60;99.90;;;;;;5051137;28;20455;-84
2021/09/13 12:47:54;;;;;;;3.65;2.60;;;45.10;99.90;;;;;;5051016;28;20517;-83
2021/09/13 12:50:36;;;;;;;4.65;2.90;;;43.00;99.90;;;;;;5050752;28;20017;-84
2021/09/13 12:53:20;;;;;;;2.78;2.55;;;42.50;99.90;;;;;;5035982;28;20029;-84
2021/09/13 12:55:46;;;;;;;2.67;2.50;;;41.50;99.90;;;;;;5050365;28;20283;-84
2021/09/13 12:58:29;;;;;;;3.17;2.88;;;40.90;99.90;;;;;;5051679;28;20025;-84
2021/09/13 13:01:03;;;;;;;2.83;2.50;;;40.40;99.90;;;;;;5049995;28;20094;-84